createdAt,value
2019-03-24T00:00:58.302Z,1013.67
2019-03-24T00:01:57.074Z,1013.66
2019-03-24T00:02:56.028Z,1013.65
2019-03-24T00:03:54.665Z,1013.69
2019-03-24T00:04:53.316Z,1013.65
2019-03-24T00:05:51.979Z,1013.67
2019-03-24T00:06:50.603Z,1013.68
2019-03-24T00:07:49.244Z,1013.65
2019-03-24T00:08:48.074Z,1013.68
2019-03-24T00:09:46.777Z,1013.67
2019-03-24T00:10:45.615Z,1013.69
2019-03-24T00:11:44.280Z,1013.66
2019-03-24T00:12:42.887Z,1013.69
2019-03-24T00:13:41.619Z,1013.72
2019-03-24T00:14:40.257Z,1013.69
2019-03-24T00:15:38.908Z,1013.72
2019-03-24T00:16:37.817Z,1013.72
2019-03-24T00:17:36.458Z,1013.67
2019-03-24T00:18:35.241Z,1013.67
2019-03-24T00:19:33.845Z,1013.67
2019-03-24T00:20:32.530Z,1013.63
2019-03-24T00:21:31.284Z,1013.67
2019-03-24T00:22:29.928Z,1013.63
2019-03-24T00:23:28.518Z,1013.62
2019-03-24T00:24:27.275Z,1013.57
2019-03-24T00:25:25.924Z,1013.58
2019-03-24T00:26:25.308Z,1013.58
2019-03-24T00:27:23.935Z,1013.58
2019-03-24T00:28:22.534Z,1013.55
2019-03-24T00:29:21.259Z,1013.53
2019-03-24T00:30:19.933Z,1013.5
2019-03-24T00:31:18.633Z,1013.51
2019-03-24T00:32:17.389Z,1013.54
2019-03-24T00:33:16.142Z,1013.52
2019-03-24T00:34:14.757Z,1013.5
2019-03-24T00:35:13.551Z,1013.46
2019-03-24T00:36:12.240Z,1013.45
2019-03-24T00:37:11.050Z,1013.48
2019-03-24T00:38:09.700Z,1013.45
2019-03-24T00:39:08.341Z,1013.41
2019-03-24T00:40:07.109Z,1013.41
2019-03-24T00:41:05.980Z,1013.45
2019-03-24T00:42:04.785Z,1013.46
2019-03-24T00:43:03.562Z,1013.41
2019-03-24T00:44:02.163Z,1013.43
2019-03-24T00:45:00.887Z,1013.36
2019-03-24T00:45:59.628Z,1013.39
2019-03-24T00:46:58.311Z,1013.37
2019-03-24T00:47:56.926Z,1013.39
2019-03-24T00:48:55.737Z,1013.41
2019-03-24T00:49:54.381Z,1013.37
2019-03-24T00:50:53.211Z,1013.41
2019-03-24T00:51:51.845Z,1013.45
2019-03-24T00:52:50.476Z,1013.39
2019-03-24T00:53:49.264Z,1013.42
2019-03-24T00:54:48.132Z,1013.44
2019-03-24T00:55:46.749Z,1013.34
2019-03-24T00:56:45.345Z,1013.38
2019-03-24T00:57:43.982Z,1013.36
2019-03-24T00:58:42.593Z,1013.37
2019-03-24T00:59:41.425Z,1013.38
2019-03-24T01:00:40.169Z,1013.36
2019-03-24T01:01:38.743Z,1013.32
2019-03-24T01:02:37.397Z,1013.37
2019-03-24T01:03:35.960Z,1013.33
2019-03-24T01:04:34.609Z,1013.33
2019-03-24T01:05:33.388Z,1013.36
2019-03-24T01:06:32.199Z,1013.32
2019-03-24T01:07:30.793Z,1013.28
2019-03-24T01:08:29.492Z,1013.25
2019-03-24T01:09:28.112Z,1013.24
2019-03-24T01:10:26.756Z,1013.24
2019-03-24T01:11:25.546Z,1013.24
2019-03-24T01:12:24.263Z,1013.21
2019-03-24T01:13:22.988Z,1013.23
2019-03-24T01:14:21.680Z,1013.2
2019-03-24T01:15:20.277Z,1013.2
2019-03-24T01:16:18.936Z,1013.19
2019-03-24T01:17:17.690Z,1013.15
2019-03-24T01:18:16.336Z,1013.14
2019-03-24T01:19:15.031Z,1013.09
2019-03-24T01:20:13.703Z,1013.15
2019-03-24T01:21:12.388Z,1013.07
2019-03-24T01:22:11.186Z,1013.09
2019-03-24T01:23:10.048Z,1013.09
2019-03-24T01:24:08.753Z,1013.05
2019-03-24T01:25:07.394Z,1013.04
2019-03-24T01:26:06.126Z,1013.02
2019-03-24T01:27:04.788Z,1012.99
2019-03-24T01:28:03.592Z,1012.96
2019-03-24T01:29:02.249Z,1012.96
2019-03-24T01:30:00.807Z,1012.99
2019-03-24T01:30:59.392Z,1013.01
2019-03-24T01:31:58.077Z,1012.95
2019-03-24T01:32:56.737Z,1012.86
2019-03-24T01:33:55.373Z,1012.92
2019-03-24T01:34:54.197Z,1012.9
2019-03-24T01:35:52.787Z,1012.88
2019-03-24T01:36:51.446Z,1012.89
2019-03-24T01:37:50.089Z,1012.88
2019-03-24T01:38:48.792Z,1012.93
2019-03-24T01:39:47.453Z,1012.89
2019-03-24T01:40:46.241Z,1012.92
2019-03-24T01:41:44.870Z,1012.92
2019-03-24T01:42:43.586Z,1012.9
2019-03-24T01:43:42.306Z,1012.88
2019-03-24T01:44:40.994Z,1012.84
2019-03-24T01:45:40.025Z,1012.93
2019-03-24T01:46:38.650Z,1012.85
2019-03-24T01:47:37.355Z,1012.85
2019-03-24T01:48:36.058Z,1012.89
2019-03-24T01:49:34.681Z,1012.87
2019-03-24T01:50:33.564Z,1012.8
2019-03-24T01:51:32.390Z,1012.83
2019-03-24T01:52:31.013Z,1012.82
2019-03-24T01:53:29.804Z,1012.83
2019-03-24T01:54:28.490Z,1012.8
2019-03-24T01:55:27.181Z,1012.79
2019-03-24T01:56:26.433Z,1012.81
2019-03-24T01:57:25.165Z,1012.75
2019-03-24T01:58:23.728Z,1012.77
2019-03-24T01:59:22.364Z,1012.79
2019-03-24T02:00:20.985Z,1012.77
2019-03-24T02:01:19.715Z,1012.82
2019-03-24T02:02:18.389Z,1012.79
2019-03-24T02:03:17.195Z,1012.78
2019-03-24T02:04:15.827Z,1012.79
2019-03-24T02:05:14.422Z,1012.78
2019-03-24T02:06:13.082Z,1012.76
2019-03-24T02:07:11.753Z,1012.77
2019-03-24T02:08:10.380Z,1012.73
2019-03-24T02:09:09.017Z,1012.74
2019-03-24T02:10:07.733Z,1012.71
2019-03-24T02:11:06.341Z,1012.75
2019-03-24T02:12:05.041Z,1012.71
2019-03-24T02:13:03.843Z,1012.68
2019-03-24T02:14:02.480Z,1012.71
2019-03-24T02:15:01.129Z,1012.72
2019-03-24T02:16:08.943Z,1012.68
2019-03-24T02:16:59.297Z,1012.61
2019-03-24T02:17:57.124Z,1012.61
2019-03-24T02:18:55.885Z,1012.59
2019-03-24T02:19:54.515Z,1012.6
2019-03-24T02:20:53.153Z,1012.6
2019-03-24T02:21:51.902Z,1012.6
2019-03-24T02:22:50.510Z,1012.6
2019-03-24T02:23:49.148Z,1012.6
2019-03-24T02:24:47.878Z,1012.55
2019-03-24T02:25:46.579Z,1012.63
2019-03-24T02:26:45.230Z,1012.6
2019-03-24T02:27:44.004Z,1012.67
2019-03-24T02:28:42.667Z,1012.63
2019-03-24T02:29:41.669Z,1012.59
2019-03-24T02:30:40.346Z,1012.66
2019-03-24T02:31:39.089Z,1012.66
2019-03-24T02:32:37.733Z,1012.62
2019-03-24T02:33:36.331Z,1012.6
2019-03-24T02:34:34.954Z,1012.63
2019-03-24T02:35:33.709Z,1012.64
2019-03-24T02:36:32.341Z,1012.59
2019-03-24T02:37:30.977Z,1012.63
2019-03-24T02:38:29.760Z,1012.59
2019-03-24T02:39:28.405Z,1012.64
2019-03-24T02:40:27.000Z,1012.64
2019-03-24T02:41:25.698Z,1012.64
2019-03-24T02:42:24.363Z,1012.67
2019-03-24T02:43:22.991Z,1012.66
2019-03-24T02:44:21.752Z,1012.63
2019-03-24T02:45:20.394Z,1012.6
2019-03-24T02:46:24.427Z,1012.62
2019-03-24T02:47:17.937Z,1012.66
2019-03-24T02:48:16.544Z,1012.63
2019-03-24T02:49:15.265Z,1012.66
2019-03-24T02:50:13.954Z,1012.66
2019-03-24T02:51:12.569Z,1012.65
2019-03-24T02:52:11.206Z,1012.64
2019-03-24T02:53:10.003Z,1012.64
2019-03-24T02:54:08.654Z,1012.59
2019-03-24T02:55:07.484Z,1012.54
2019-03-24T02:56:06.119Z,1012.57
2019-03-24T02:57:04.746Z,1012.57
2019-03-24T02:58:03.417Z,1012.61
2019-03-24T02:59:02.078Z,1012.62
2019-03-24T03:00:00.696Z,1012.59
2019-03-24T03:00:59.480Z,1012.6
2019-03-24T03:01:58.150Z,1012.64
2019-03-24T03:02:56.799Z,1012.61
2019-03-24T03:03:55.565Z,1012.6
2019-03-24T03:04:54.277Z,1012.62
2019-03-24T03:05:52.946Z,1012.56
2019-03-24T03:06:51.655Z,1012.62
2019-03-24T03:07:50.296Z,1012.6
2019-03-24T03:08:48.918Z,1012.6
2019-03-24T03:09:47.616Z,1012.61
2019-03-24T03:10:46.275Z,1012.59
2019-03-24T03:11:44.921Z,1012.57
2019-03-24T03:12:43.685Z,1012.55
2019-03-24T03:13:42.292Z,1012.57
2019-03-24T03:14:40.941Z,1012.57
2019-03-24T03:15:39.678Z,1012.6
2019-03-24T03:16:39.318Z,1012.52
2019-03-24T03:17:36.952Z,1012.57
2019-03-24T03:18:35.750Z,1012.54
2019-03-24T03:19:34.368Z,1012.52
2019-03-24T03:20:33.000Z,1012.56
2019-03-24T03:21:31.648Z,1012.54
2019-03-24T03:22:30.291Z,1012.56
2019-03-24T03:23:28.991Z,1012.55
2019-03-24T03:24:27.968Z,1012.6
2019-03-24T03:25:26.609Z,1012.52
2019-03-24T03:26:25.251Z,1012.56
2019-03-24T03:27:24.065Z,1012.51
2019-03-24T03:28:22.732Z,1012.55
2019-03-24T03:29:21.469Z,1012.55
2019-03-24T03:30:20.109Z,1012.6
2019-03-24T03:31:18.771Z,1012.62
2019-03-24T03:32:17.662Z,1012.57
2019-03-24T03:33:16.550Z,1012.61
2019-03-24T03:34:15.058Z,1012.59
2019-03-24T03:35:13.692Z,1012.56
2019-03-24T03:36:12.321Z,1012.56
2019-03-24T03:37:10.997Z,1012.55
2019-03-24T03:38:09.677Z,1012.56
2019-03-24T03:39:08.368Z,1012.56
2019-03-24T03:40:07.264Z,1012.56
2019-03-24T03:41:05.733Z,1012.46
2019-03-24T03:42:04.367Z,1012.46
2019-03-24T03:43:03.135Z,1012.43
2019-03-24T03:44:01.824Z,1012.43
2019-03-24T03:45:00.562Z,1012.43
2019-03-24T03:45:59.227Z,1012.4
2019-03-24T03:46:57.928Z,1012.41
2019-03-24T03:47:56.594Z,1012.38
2019-03-24T03:48:55.419Z,1012.33
2019-03-24T03:49:54.226Z,1012.33
2019-03-24T03:50:52.868Z,1012.36
2019-03-24T03:51:51.546Z,1012.3
2019-03-24T03:52:50.244Z,1012.3
2019-03-24T03:53:48.876Z,1012.27
2019-03-24T03:54:47.500Z,1012.3
2019-03-24T03:55:46.268Z,1012.27
2019-03-24T03:56:44.931Z,1012.23
2019-03-24T03:57:43.597Z,1012.25
2019-03-24T03:58:42.376Z,1012.26
2019-03-24T03:59:41.083Z,1012.24
2019-03-24T04:00:39.868Z,1012.22
2019-03-24T04:01:38.506Z,1012.24
2019-03-24T04:02:37.139Z,1012.23
2019-03-24T04:03:36.101Z,1012.2
2019-03-24T04:04:34.743Z,1012.22
2019-03-24T04:05:33.507Z,1012.22
2019-03-24T04:06:32.150Z,1012.21
2019-03-24T04:07:30.833Z,1012.24
2019-03-24T04:08:29.558Z,1012.25
2019-03-24T04:09:28.247Z,1012.25
2019-03-24T04:10:26.900Z,1012.22
2019-03-24T04:11:25.599Z,1012.24
2019-03-24T04:12:24.328Z,1012.28
2019-03-24T04:13:22.980Z,1012.28
2019-03-24T04:14:21.640Z,1012.29
2019-03-24T04:15:20.391Z,1012.26
2019-03-24T04:16:19.101Z,1012.27
2019-03-24T04:17:17.766Z,1012.21
2019-03-24T04:18:16.428Z,1012.25
2019-03-24T04:19:15.105Z,1012.23
2019-03-24T04:20:13.789Z,1012.25
2019-03-24T04:21:12.911Z,1012.22
2019-03-24T04:22:11.619Z,1012.19
2019-03-24T04:23:10.284Z,1012.2
2019-03-24T04:24:08.938Z,1012.18
2019-03-24T04:25:07.667Z,1012.18
2019-03-24T04:26:06.299Z,1012.21
2019-03-24T04:27:04.934Z,1012.17
2019-03-24T04:28:03.822Z,1012.21
2019-03-24T04:29:02.460Z,1012.19
2019-03-24T04:30:01.914Z,1012.19
2019-03-24T04:31:00.519Z,1012.14
2019-03-24T04:31:59.304Z,1012.16
2019-03-24T04:32:57.926Z,1012.17
2019-03-24T04:33:56.587Z,1012.22
2019-03-24T04:34:55.231Z,1012.25
2019-03-24T04:35:53.993Z,1012.14
2019-03-24T04:36:52.622Z,1012.16
2019-03-24T04:37:51.339Z,1012.19
2019-03-24T04:38:49.987Z,1012.18
2019-03-24T04:39:48.650Z,1012.17
2019-03-24T04:40:47.461Z,1012.18
2019-03-24T04:41:46.186Z,1012.12
2019-03-24T04:42:44.949Z,1012.17
2019-03-24T04:43:43.616Z,1012.2
2019-03-24T04:44:42.233Z,1012.17
2019-03-24T04:45:40.853Z,1012.21
2019-03-24T04:46:39.562Z,1012.15
2019-03-24T04:47:38.346Z,1012.16
2019-03-24T04:48:37.008Z,1012.17
2019-03-24T04:52:16.104Z,1012.11
2019-03-24T04:53:14.730Z,1012.13
2019-03-24T04:54:13.606Z,1012.15
2019-03-24T04:55:12.269Z,1012.18
2019-03-24T04:56:11.029Z,1012.18
2019-03-24T04:57:09.820Z,1012.2
2019-03-24T05:00:48.887Z,1012.21
2019-03-24T05:01:47.635Z,1012.21
2019-03-24T05:02:46.327Z,1012.21
2019-03-24T05:03:44.991Z,1012.22
2019-03-24T05:04:43.812Z,1012.22
2019-03-24T05:05:42.605Z,1012.18
2019-03-24T05:06:41.280Z,1012.16
2019-03-24T05:07:40.021Z,1012.16
2019-03-24T05:08:38.669Z,1012.19
2019-03-24T05:09:37.314Z,1012.17
2019-03-24T05:10:35.887Z,1012.17
2019-03-24T05:11:34.520Z,1012.19
2019-03-24T05:12:33.175Z,1012.27
2019-03-24T05:13:31.877Z,1012.23
2019-03-24T05:14:30.498Z,1012.28
2019-03-24T05:15:29.169Z,1012.28
2019-03-24T05:16:27.828Z,1012.27
2019-03-24T05:17:27.382Z,1012.25
2019-03-24T05:18:25.106Z,1012.24
2019-03-24T05:19:23.867Z,1012.29
2019-03-24T05:20:22.499Z,1012.26
2019-03-24T05:21:21.356Z,1012.3
2019-03-24T05:22:19.975Z,1012.3
2019-03-24T05:23:18.664Z,1012.28
2019-03-24T05:24:17.351Z,1012.33
2019-03-24T05:25:16.057Z,1012.34
2019-03-24T05:26:14.618Z,1012.32
2019-03-24T05:27:13.372Z,1012.32
2019-03-24T05:28:11.997Z,1012.28
2019-03-24T05:29:10.617Z,1012.32
2019-03-24T05:30:09.225Z,1012.29
2019-03-24T05:31:08.080Z,1012.31
2019-03-24T05:32:07.536Z,1012.26
2019-03-24T05:33:06.188Z,1012.35
2019-03-24T05:34:04.783Z,1012.32
2019-03-24T05:35:05.629Z,1012.3
2019-03-24T05:36:02.212Z,1012.26
2019-03-24T05:37:00.935Z,1012.31
2019-03-24T05:37:59.669Z,1012.29
2019-03-24T05:38:58.505Z,1012.26
2019-03-24T05:39:57.205Z,1012.25
2019-03-24T05:40:55.909Z,1012.23
2019-03-24T05:41:54.611Z,1012.27
2019-03-24T05:42:53.294Z,1012.26
2019-03-24T05:43:52.048Z,1012.21
2019-03-24T05:44:50.668Z,1012.24
2019-03-24T05:45:49.332Z,1012.25
2019-03-24T05:46:48.113Z,1012.24
2019-03-24T05:47:46.776Z,1012.28
2019-03-24T05:48:45.476Z,1012.3
2019-03-24T05:49:44.358Z,1012.27
2019-03-24T05:50:43.066Z,1012.25
2019-03-24T05:51:41.716Z,1012.31
2019-03-24T05:52:40.433Z,1012.24
2019-03-24T05:53:39.205Z,1012.28
2019-03-24T05:54:37.910Z,1012.27
2019-03-24T05:55:36.553Z,1012.26
2019-03-24T05:56:35.359Z,1012.26
2019-03-24T05:57:34.209Z,1012.24
2019-03-24T05:58:32.837Z,1012.23
2019-03-24T05:59:31.476Z,1012.29
2019-03-24T06:00:30.080Z,1012.32
2019-03-24T06:01:28.818Z,1012.32
2019-03-24T06:02:27.495Z,1012.32
2019-03-24T06:03:26.229Z,1012.31
2019-03-24T06:04:24.874Z,1012.31
2019-03-24T06:05:23.569Z,1012.34
2019-03-24T06:06:22.207Z,1012.3
2019-03-24T06:07:20.841Z,1012.25
2019-03-24T06:08:19.536Z,1012.34
2019-03-24T06:09:18.224Z,1012.25
2019-03-24T06:10:16.870Z,1012.25
2019-03-24T06:11:15.540Z,1012.29
2019-03-24T06:12:14.178Z,1012.23
2019-03-24T06:13:12.849Z,1012.26
2019-03-24T06:14:11.717Z,1012.33
2019-03-24T06:15:10.393Z,1012.37
2019-03-24T06:16:09.027Z,1012.38
2019-03-24T06:17:07.702Z,1012.37
2019-03-24T06:18:06.303Z,1012.37
2019-03-24T06:19:04.904Z,1012.36
2019-03-24T06:20:03.788Z,1012.36
2019-03-24T06:21:02.521Z,1012.36
2019-03-24T06:22:01.188Z,1012.35
2019-03-24T06:22:59.777Z,1012.38
2019-03-24T06:23:58.552Z,1012.36
2019-03-24T06:24:57.160Z,1012.42
2019-03-24T06:25:55.887Z,1012.47
2019-03-24T06:26:54.699Z,1012.4
2019-03-24T06:27:53.322Z,1012.44
2019-03-24T06:28:51.936Z,1012.47
2019-03-24T06:29:50.536Z,1012.4
2019-03-24T06:30:49.164Z,1012.47
2019-03-24T06:31:47.889Z,1012.44
2019-03-24T06:32:46.475Z,1012.44
2019-03-24T06:33:45.106Z,1012.45
2019-03-24T06:34:43.896Z,1012.44
2019-03-24T06:35:42.576Z,1012.43
2019-03-24T06:36:41.196Z,1012.46
2019-03-24T06:37:39.924Z,1012.44
2019-03-24T06:38:38.589Z,1012.45
2019-03-24T06:39:37.193Z,1012.46
2019-03-24T06:40:35.922Z,1012.4
2019-03-24T06:41:34.558Z,1012.4
2019-03-24T06:42:33.186Z,1012.46
2019-03-24T06:43:31.853Z,1012.39
2019-03-24T06:44:30.474Z,1012.37
2019-03-24T06:45:29.168Z,1012.37
2019-03-24T06:46:28.035Z,1012.35
2019-03-24T06:47:26.675Z,1012.36
2019-03-24T06:48:25.336Z,1012.38
2019-03-24T06:49:24.090Z,1012.29
2019-03-24T06:50:22.715Z,1012.35
2019-03-24T06:51:21.610Z,1012.31
2019-03-24T06:52:20.267Z,1012.34
2019-03-24T06:53:18.866Z,1012.32
2019-03-24T06:54:17.746Z,1012.28
2019-03-24T06:55:16.475Z,1012.28
2019-03-24T06:56:15.186Z,1012.31
2019-03-24T06:57:13.812Z,1012.3
2019-03-24T06:58:12.443Z,1012.32
2019-03-24T06:59:11.053Z,1012.29
2019-03-24T07:00:09.849Z,1012.34
2019-03-24T07:01:08.530Z,1012.37
2019-03-24T07:04:48.070Z,1012.36
2019-03-24T07:05:46.698Z,1012.39
2019-03-24T07:06:45.403Z,1012.38
2019-03-24T07:07:44.219Z,1012.41
2019-03-24T07:08:42.856Z,1012.4
2019-03-24T07:09:41.665Z,1012.46
2019-03-24T07:10:40.365Z,1012.42
2019-03-24T07:11:38.930Z,1012.42
2019-03-24T07:12:37.577Z,1012.44
2019-03-24T07:13:36.271Z,1012.45
2019-03-24T07:14:34.928Z,1012.43
2019-03-24T07:15:33.541Z,1012.46
2019-03-24T07:16:32.963Z,1012.46
2019-03-24T07:17:31.866Z,1012.49
2019-03-24T07:18:30.790Z,1012.55
2019-03-24T07:19:29.139Z,1012.5
2019-03-24T07:20:27.955Z,1012.49
2019-03-24T07:21:27.012Z,1012.55
2019-03-24T07:23:49.813Z,1012.55
2019-03-24T07:26:29.936Z,1012.56
2019-03-24T07:27:28.651Z,1012.6
2019-03-24T07:28:27.328Z,1012.61
2019-03-24T07:29:25.978Z,1012.58
2019-03-24T07:30:24.632Z,1012.57
2019-03-24T07:31:23.797Z,1012.57
2019-03-24T07:32:22.433Z,1012.58
2019-03-24T07:35:02.570Z,1012.6
2019-03-24T07:36:01.334Z,1012.61
2019-03-24T07:37:00.313Z,1012.6
2019-03-24T07:37:58.958Z,1012.61
2019-03-24T07:38:57.840Z,1012.54
2019-03-24T07:39:56.494Z,1012.56
2019-03-24T07:43:35.895Z,1012.49
2019-03-24T07:44:34.752Z,1012.51
2019-03-24T07:45:33.575Z,1012.48
2019-03-24T07:46:32.412Z,1012.43
2019-03-24T07:47:31.206Z,1012.39
2019-03-24T07:48:29.874Z,1012.45
2019-03-24T07:49:28.601Z,1012.45
2019-03-24T08:04:11.629Z,1012.59
2019-03-24T08:05:10.294Z,1012.54
2019-03-24T08:07:08.561Z,1012.54
2019-03-24T08:08:07.841Z,1012.58
2019-03-24T08:09:07.202Z,1012.59
2019-03-24T08:11:47.387Z,1012.48
2019-03-24T08:12:46.328Z,1012.5
2019-03-24T08:13:53.525Z,1012.49
2019-03-24T08:14:44.746Z,1012.47
2019-03-24T08:17:24.984Z,1012.49
2019-03-24T08:18:29.714Z,1012.46
2019-03-24T08:21:06.753Z,1012.43
2019-03-24T08:22:05.779Z,1012.47
2019-03-24T08:23:04.402Z,1012.41
2019-03-24T08:31:55.032Z,1012.36
2019-03-24T08:32:53.933Z,1012.33
2019-03-24T08:33:52.598Z,1012.36
2019-03-24T08:36:32.642Z,1012.29
2019-03-24T08:37:31.360Z,1012.29
2019-03-24T08:38:30.061Z,1012.34
2019-03-24T08:39:28.984Z,1012.3
2019-03-24T08:40:27.916Z,1012.31
2019-03-24T08:41:26.525Z,1012.3
2019-03-24T08:43:42.599Z,1012.23
2019-03-24T08:44:41.223Z,1012.24
2019-03-24T08:45:40.010Z,1012.24
2019-03-24T08:46:38.713Z,1012.23
2019-03-24T08:47:37.372Z,1012.25
2019-03-24T08:48:40.672Z,1012.2
2019-03-24T08:49:34.807Z,1012.24
2019-03-24T08:50:33.507Z,1012.15
2019-03-24T08:51:32.366Z,1012.22
2019-03-24T08:52:31.107Z,1012.27
2019-03-24T08:53:30.042Z,1012.21
2019-03-24T08:54:28.672Z,1012.19
2019-03-24T08:55:27.351Z,1012.19
2019-03-24T08:56:26.266Z,1012.21
2019-03-24T08:57:24.915Z,1012.16
2019-03-24T08:58:23.567Z,1012.16
2019-03-24T08:59:22.584Z,1012.18
2019-03-24T09:01:38.209Z,1012.23
2019-03-24T09:02:37.305Z,1012.19
2019-03-24T09:03:36.213Z,1012.13
2019-03-24T09:06:01.982Z,1012.09
2019-03-24T09:07:00.613Z,1012.07
2019-03-24T09:08:00.282Z,1012.08
2019-03-24T09:08:59.411Z,1012.07
2019-03-24T09:09:58.117Z,1012.08
2019-03-24T09:10:58.623Z,1012.06
2019-03-24T09:11:57.266Z,1012.08
2019-03-24T09:12:56.262Z,1012.05
2019-03-24T09:13:54.863Z,1012.09
2019-03-24T09:14:53.674Z,1012.09
2019-03-24T09:15:52.375Z,1012.08
2019-03-24T09:16:50.963Z,1012.06
2019-03-24T09:17:49.690Z,1012.08
2019-03-24T09:18:52.726Z,1012.09
2019-03-24T09:19:47.142Z,1012.03
2019-03-24T09:22:28.079Z,1012.05
2019-03-24T09:23:26.682Z,1012.02
2019-03-24T09:24:25.306Z,1012.03
2019-03-24T09:25:24.062Z,1012.06
2019-03-24T09:26:22.698Z,1011.98
2019-03-24T09:27:22.103Z,1012.02
2019-03-24T09:28:20.719Z,1012.01
2019-03-24T09:29:19.676Z,1011.98
2019-03-24T09:30:18.304Z,1011.97
2019-03-24T09:31:16.885Z,1011.94
2019-03-24T09:32:15.717Z,1011.94
2019-03-24T09:42:43.517Z,1011.85
2019-03-24T09:45:23.810Z,1011.77
2019-03-24T09:46:22.913Z,1011.85
2019-03-24T09:49:03.576Z,1011.73
2019-03-24T09:50:02.119Z,1011.76
2019-03-24T09:51:01.014Z,1011.74
2019-03-24T09:51:59.755Z,1011.76
2019-03-24T09:52:58.564Z,1011.75
2019-03-24T09:55:39.284Z,1011.74
2019-03-24T09:59:23.331Z,1011.68
2019-03-24T10:00:22.089Z,1011.68
2019-03-24T10:03:02.430Z,1011.66
2019-03-24T10:04:01.256Z,1011.7
2019-03-24T10:05:00.084Z,1011.65
2019-03-24T10:05:58.828Z,1011.63
2019-03-24T10:06:57.524Z,1011.61
2019-03-24T10:09:20.228Z,1011.55
2019-03-24T10:10:18.851Z,1011.6
2019-03-24T10:11:17.538Z,1011.61
2019-03-24T10:12:16.311Z,1011.6
2019-03-24T10:13:14.882Z,1011.53
2019-03-24T10:14:14.481Z,1011.58
2019-03-24T10:15:13.150Z,1011.55
2019-03-24T10:16:11.971Z,1011.54
2019-03-24T10:17:10.603Z,1011.53
2019-03-24T10:18:09.195Z,1011.53
2019-03-24T10:19:13.757Z,1011.53
2019-03-24T10:20:06.525Z,1011.49
2019-03-24T10:21:05.127Z,1011.51
2019-03-24T10:22:03.793Z,1011.5
2019-03-24T10:23:02.556Z,1011.48
2019-03-24T10:24:01.182Z,1011.48
2019-03-24T10:24:59.999Z,1011.48
2019-03-24T10:25:58.644Z,1011.47
2019-03-24T10:26:57.339Z,1011.46
2019-03-24T10:27:56.173Z,1011.45
2019-03-24T10:28:54.835Z,1011.44
2019-03-24T10:29:53.676Z,1011.43
2019-03-24T10:30:52.929Z,1011.41
2019-03-24T10:31:51.657Z,1011.36
2019-03-24T10:32:50.309Z,1011.39
2019-03-24T10:33:51.825Z,1011.4
2019-03-24T10:34:50.514Z,1011.41
2019-03-24T10:35:49.160Z,1011.39
2019-03-24T10:36:47.941Z,1011.36
2019-03-24T10:37:46.531Z,1011.39
2019-03-24T10:38:45.166Z,1011.35
2019-03-24T10:39:43.843Z,1011.37
2019-03-24T10:40:42.531Z,1011.33
2019-03-24T10:41:41.731Z,1011.34
2019-03-24T10:42:40.342Z,1011.32
2019-03-24T10:45:20.758Z,1011.27
2019-03-24T10:46:19.651Z,1011.31
2019-03-24T10:47:18.296Z,1011.31
2019-03-24T10:48:16.978Z,1011.29
2019-03-24T10:49:24.322Z,1011.35
2019-03-24T10:50:14.667Z,1011.34
2019-03-24T10:51:14.209Z,1011.3
2019-03-24T10:52:12.941Z,1011.3
2019-03-24T10:53:11.829Z,1011.33
2019-03-24T10:54:10.525Z,1011.28
2019-03-24T10:55:09.174Z,1011.3
2019-03-24T10:56:08.223Z,1011.32
2019-03-24T10:57:06.890Z,1011.35
2019-03-24T10:58:05.584Z,1011.33
2019-03-24T10:59:04.262Z,1011.32
2019-03-24T11:00:02.927Z,1011.32
2019-03-24T11:01:01.486Z,1011.35
2019-03-24T11:02:00.278Z,1011.3
2019-03-24T11:06:54.999Z,1011.24
2019-03-24T11:07:53.828Z,1011.26
2019-03-24T11:08:52.567Z,1011.19
2019-03-24T11:09:51.227Z,1011.22
2019-03-24T11:10:50.019Z,1011.17
2019-03-24T11:11:48.744Z,1011.21
2019-03-24T11:12:47.442Z,1011.17
2019-03-24T11:14:47.471Z,1011.16
2019-03-24T11:15:46.180Z,1011.14
2019-03-24T11:16:44.897Z,1011.18
2019-03-24T11:17:43.937Z,1011.16
2019-03-24T11:18:56.278Z,1011.15
2019-03-24T11:19:55.683Z,1011.16
2019-03-24T11:20:54.300Z,1011.17
2019-03-24T11:21:52.894Z,1011.14
2019-03-24T11:24:33.323Z,1011.11
2019-03-24T11:25:32.698Z,1011.14
2019-03-24T11:26:31.446Z,1011.11
2019-03-24T11:27:30.171Z,1011.08
2019-03-24T11:28:28.837Z,1011.11
2019-03-24T11:29:27.614Z,1011.16
2019-03-24T11:30:26.425Z,1011.17
2019-03-24T11:31:25.084Z,1011.18
2019-03-24T11:32:23.779Z,1011.11
2019-03-24T11:33:22.410Z,1011.15
2019-03-24T11:34:21.074Z,1011.11
2019-03-24T11:35:19.797Z,1011.17
2019-03-24T11:36:18.833Z,1011.18
2019-03-24T11:37:18.530Z,1011.17
2019-03-24T11:38:18.108Z,1011.18
2019-03-24T11:39:16.866Z,1011.16
2019-03-24T11:40:16.007Z,1011.17
2019-03-24T11:41:15.663Z,1011.14
2019-03-24T11:42:14.315Z,1011.18
2019-03-24T11:44:34.955Z,1011.23
2019-03-24T11:45:33.699Z,1011.26
2019-03-24T11:46:32.357Z,1011.26
2019-03-24T11:53:15.031Z,1010.97
2019-03-24T11:54:15.009Z,1010.93
2019-03-24T11:55:13.353Z,1010.9
2019-03-24T11:56:12.082Z,1010.92
2019-03-24T11:58:52.431Z,1010.88
2019-03-24T12:01:38.119Z,1010.82
2019-03-24T12:02:32.006Z,1010.8
2019-03-24T12:03:32.260Z,1010.8
2019-03-24T12:04:30.979Z,1010.77
2019-03-24T12:05:29.698Z,1010.78
2019-03-24T12:06:28.458Z,1010.79
2019-03-24T12:07:27.271Z,1010.75
2019-03-24T12:08:26.370Z,1010.77
2019-03-24T12:09:25.157Z,1010.75
2019-03-24T12:14:03.492Z,1010.73
2019-03-24T12:15:05.385Z,1010.68
2019-03-24T12:17:26.839Z,1010.64
2019-03-24T12:18:25.501Z,1010.64
2019-03-24T12:19:25.277Z,1010.57
2019-03-24T12:20:23.866Z,1010.59
2019-03-24T12:21:22.519Z,1010.53
2019-03-24T12:22:21.167Z,1010.57
2019-03-24T12:23:20.993Z,1010.48
2019-03-24T12:25:46.460Z,1010.5
2019-03-24T12:26:45.096Z,1010.5
2019-03-24T12:27:43.771Z,1010.49
2019-03-24T12:29:41.232Z,1010.53
2019-03-24T12:30:40.180Z,1010.49
2019-03-24T12:31:38.851Z,1010.5
2019-03-24T12:32:37.453Z,1010.52
2019-03-24T12:33:36.202Z,1010.52
2019-03-24T12:34:34.836Z,1010.5
2019-03-24T12:35:33.499Z,1010.49
2019-03-24T12:36:32.156Z,1010.45
2019-03-24T12:37:30.852Z,1010.48
2019-03-24T12:40:11.175Z,1010.47
2019-03-24T12:41:10.122Z,1010.4
2019-03-24T12:42:08.767Z,1010.45
2019-03-24T12:43:07.386Z,1010.44
2019-03-24T12:44:06.314Z,1010.47
2019-03-24T12:45:05.296Z,1010.42
2019-03-24T12:46:03.894Z,1010.43
2019-03-24T12:47:02.560Z,1010.49
2019-03-24T12:48:02.387Z,1010.47
2019-03-24T12:49:01.266Z,1010.42
2019-03-24T12:50:08.241Z,1010.4
2019-03-24T12:50:58.596Z,1010.42
2019-03-24T12:51:57.251Z,1010.42
2019-03-24T12:52:55.881Z,1010.33
2019-03-24T12:53:54.612Z,1010.35
2019-03-24T12:54:53.444Z,1010.33
2019-03-24T12:55:52.125Z,1010.32
2019-03-24T12:56:50.833Z,1010.33
2019-03-24T12:57:49.776Z,1010.33
2019-03-24T12:58:48.496Z,1010.28
2019-03-24T12:59:47.119Z,1010.32
2019-03-24T13:00:45.958Z,1010.31
2019-03-24T13:01:44.637Z,1010.29
2019-03-24T13:02:43.248Z,1010.21
2019-03-24T13:03:41.886Z,1010.22
2019-03-24T13:04:40.494Z,1010.24
2019-03-24T13:05:39.174Z,1010.21
2019-03-24T13:06:37.772Z,1010.17
2019-03-24T13:07:36.542Z,1010.21
2019-03-24T13:08:35.210Z,1010.24
2019-03-24T13:09:33.995Z,1010.23
2019-03-24T13:10:32.713Z,1010.18
2019-03-24T13:11:31.382Z,1010.17
2019-03-24T13:12:30.202Z,1010.17
2019-03-24T13:13:28.999Z,1010.16
2019-03-24T13:14:30.527Z,1010.18
2019-03-24T13:15:26.802Z,1010.18
2019-03-24T13:16:25.433Z,1010.14
2019-03-24T13:17:24.641Z,1010.11
2019-03-24T13:18:23.327Z,1010.15
2019-03-24T13:19:22.213Z,1010.15
2019-03-24T13:22:02.290Z,1010.1
2019-03-24T13:23:00.960Z,1010.05
2019-03-24T13:23:59.646Z,1010.06
2019-03-24T13:24:58.393Z,1010.06
2019-03-24T13:46:07.218Z,1010.07
2019-03-24T13:47:06.128Z,1010.05
2019-03-24T13:48:04.789Z,1009.97
2019-03-24T13:49:03.527Z,1010.02
2019-03-24T13:50:02.351Z,1010.05
2019-03-24T13:51:01.024Z,1009.97
2019-03-24T13:52:00.089Z,1010.02
2019-03-24T13:52:58.747Z,1009.97
2019-03-24T13:53:57.386Z,1009.96